createdAt,value
2023-01-09T00:01:31.385Z,32.10
2023-01-09T00:03:59.171Z,31.23
2023-01-09T00:06:27.326Z,30.88
2023-01-09T00:08:55.172Z,30.23
2023-01-09T00:11:23.265Z,32.33
2023-01-09T00:13:50.946Z,30.48
2023-01-09T00:16:19.555Z,33.15
2023-01-09T00:18:47.216Z,29.00
2023-01-09T00:21:15.648Z,29.10
2023-01-09T00:23:43.340Z,31.63
2023-01-09T00:26:14.428Z,30.50
2023-01-09T00:28:42.094Z,30.85
2023-01-09T00:31:10.845Z,28.33
2023-01-09T00:34:06.884Z,31.58
2023-01-09T00:36:34.990Z,30.15
2023-01-09T00:39:02.771Z,30.98
2023-01-09T00:41:40.087Z,29.58
2023-01-09T00:44:22.288Z,29.95
2023-01-09T00:46:55.552Z,32.65
2023-01-09T00:49:23.599Z,30.90
2023-01-09T00:51:52.222Z,29.85
2023-01-09T00:54:20.423Z,29.73
2023-01-09T00:56:49.226Z,31.90
2023-01-09T00:59:16.905Z,30.80
2023-01-09T01:01:44.884Z,31.08
2023-01-09T01:04:31.148Z,28.73
2023-01-09T01:07:22.322Z,30.15
2023-01-09T01:09:50.040Z,31.08
2023-01-09T01:12:18.015Z,33.75
2023-01-09T01:14:45.598Z,31.98
2023-01-09T01:17:13.478Z,28.05
2023-01-09T01:19:41.163Z,31.10
2023-01-09T01:22:09.196Z,30.23
2023-01-09T01:24:36.870Z,32.70
2023-01-09T01:27:04.877Z,28.90
2023-01-09T01:29:32.587Z,30.95
2023-01-09T01:32:00.506Z,29.85
2023-01-09T01:34:29.907Z,31.13
2023-01-09T01:36:57.797Z,28.33
2023-01-09T01:39:25.442Z,30.30
2023-01-09T01:41:53.377Z,29.90
2023-01-09T01:44:59.672Z,30.25
2023-01-09T01:47:49.330Z,27.85
2023-01-09T01:50:35.329Z,25.85
2023-01-09T01:53:12.001Z,27.33
2023-01-09T01:55:47.064Z,22.88
2023-01-09T01:58:15.910Z,26.30
2023-01-09T02:00:46.774Z,29.23
2023-01-09T02:03:19.595Z,27.77
2023-01-09T02:05:47.391Z,28.40
2023-01-09T02:08:15.877Z,29.40
2023-01-09T02:10:44.893Z,26.40
2023-01-09T02:13:13.806Z,28.52
2023-01-09T02:16:18.373Z,29.52
2023-01-09T02:21:39.351Z,26.85
2023-01-09T02:24:23.872Z,26.17
2023-01-09T02:29:45.091Z,26.20
2023-01-09T02:32:24.932Z,26.77
2023-01-09T02:35:11.866Z,25.25
2023-01-09T02:38:09.730Z,27.70
2023-01-09T02:40:52.543Z,24.63
2023-01-09T02:43:20.864Z,25.13
2023-01-09T02:45:48.867Z,25.70
2023-01-09T02:48:16.558Z,23.45
2023-01-09T02:51:08.045Z,25.13
2023-01-09T02:54:02.542Z,25.63
2023-01-09T02:56:54.959Z,25.30
2023-01-09T02:59:34.535Z,25.42
2023-01-09T03:02:16.965Z,27.27
2023-01-09T03:04:59.390Z,26.30
2023-01-09T03:07:45.379Z,25.52
2023-01-09T03:10:32.952Z,26.90
2023-01-09T03:13:03.284Z,26.20
2023-01-09T03:15:35.197Z,26.17
2023-01-09T03:18:06.186Z,23.70
2023-01-09T03:20:34.747Z,25.27
2023-01-09T03:23:04.838Z,24.73
2023-01-09T03:25:33.155Z,25.05
2023-01-09T03:28:03.601Z,25.35
2023-01-09T03:30:32.933Z,25.02
2023-01-09T03:33:00.907Z,23.92
2023-01-09T03:35:28.810Z,24.55
2023-01-09T03:37:56.734Z,25.80
2023-01-09T03:40:24.410Z,25.60
2023-01-09T03:42:52.354Z,25.92
2023-01-09T03:45:20.153Z,25.20
2023-01-09T03:47:48.223Z,25.08
2023-01-09T03:50:16.059Z,24.50
2023-01-09T03:52:43.996Z,24.90
2023-01-09T03:55:11.941Z,24.13
2023-01-09T03:57:39.869Z,26.17
2023-01-09T04:00:08.580Z,25.08
2023-01-09T04:02:45.403Z,24.25
2023-01-09T04:05:13.799Z,22.88
2023-01-09T04:07:41.772Z,25.02
2023-01-09T04:10:11.648Z,23.70
2023-01-09T04:12:39.872Z,23.90
2023-01-09T04:15:07.941Z,21.95
2023-01-09T04:17:35.836Z,22.90
2023-01-09T04:20:04.004Z,23.20
2023-01-09T04:22:32.090Z,23.65
2023-01-09T04:24:59.767Z,24.80
2023-01-09T04:27:27.687Z,22.70
2023-01-09T04:29:55.333Z,24.27
2023-01-09T04:32:23.272Z,23.00
2023-01-09T04:34:50.891Z,24.17
2023-01-09T04:37:18.822Z,22.73
2023-01-09T04:39:46.540Z,22.45
2023-01-09T04:42:14.516Z,21.73
2023-01-09T04:44:42.298Z,23.27
2023-01-09T04:47:10.277Z,22.67
2023-01-09T04:49:37.957Z,23.23
2023-01-09T04:52:06.393Z,23.73
2023-01-09T04:54:34.601Z,26.88
2023-01-09T04:57:02.535Z,26.90
2023-01-09T04:59:30.188Z,24.20
2023-01-09T05:01:59.451Z,23.05
2023-01-09T05:04:27.322Z,23.70
2023-01-09T05:06:55.368Z,24.35
2023-01-09T05:09:23.146Z,23.65
2023-01-09T05:11:51.202Z,23.23
2023-01-09T05:14:19.159Z,22.67
2023-01-09T05:16:47.159Z,22.27
2023-01-09T05:19:15.073Z,21.70
2023-01-09T05:21:43.006Z,23.15
2023-01-09T05:24:10.583Z,22.35
2023-01-09T05:26:38.520Z,24.15
2023-01-09T05:29:06.121Z,22.92
2023-01-09T05:31:34.107Z,23.05
2023-01-09T05:34:01.959Z,21.83
2023-01-09T05:36:30.004Z,23.67
2023-01-09T05:39:02.620Z,22.48
2023-01-09T05:41:30.664Z,22.33
2023-01-09T05:43:58.487Z,20.73
2023-01-09T05:46:26.380Z,21.35
2023-01-09T05:48:54.039Z,22.00
2023-01-09T05:51:22.181Z,21.70
2023-01-09T05:53:50.305Z,21.85
2023-01-09T05:56:18.370Z,21.88
2023-01-09T05:58:46.018Z,22.45
2023-01-09T06:01:13.938Z,22.02
2023-01-09T06:03:41.687Z,21.95
2023-01-09T06:06:09.609Z,21.67
2023-01-09T06:08:37.235Z,21.60
2023-01-09T06:11:05.213Z,19.35
2023-01-09T06:13:32.959Z,23.60
2023-01-09T06:16:00.887Z,21.77
2023-01-09T06:18:28.512Z,23.55
2023-01-09T06:20:56.434Z,22.58
2023-01-09T06:23:24.116Z,23.08
2023-01-09T06:25:51.975Z,23.13
2023-01-09T06:28:19.647Z,24.20
2023-01-09T06:30:52.337Z,24.17
2023-01-09T06:33:20.592Z,23.65
2023-01-09T06:35:48.482Z,21.77
2023-01-09T06:38:16.150Z,22.55
2023-01-09T06:40:44.094Z,22.92
2023-01-09T06:43:11.720Z,24.27
2023-01-09T06:45:39.711Z,25.50
2023-01-09T06:48:07.488Z,25.90
2023-01-09T06:50:35.587Z,26.38
2023-01-09T06:53:03.819Z,24.52
2023-01-09T06:55:31.710Z,26.05
2023-01-09T06:57:59.315Z,25.67
2023-01-09T07:00:27.366Z,26.13
2023-01-09T07:02:54.997Z,25.85
2023-01-09T07:05:23.272Z,25.73
2023-01-09T07:07:51.454Z,25.33
2023-01-09T07:10:19.592Z,23.10
2023-01-09T07:12:47.344Z,24.33
2023-01-09T07:15:15.344Z,23.17
2023-01-09T07:17:43.021Z,23.90
2023-01-09T07:20:11.480Z,21.80
2023-01-09T07:22:39.209Z,21.25
2023-01-09T07:25:07.514Z,22.77
2023-01-09T07:27:35.259Z,22.27
2023-01-09T07:30:04.102Z,21.48
2023-01-09T07:32:32.581Z,21.23
2023-01-09T07:35:00.508Z,21.15
2023-01-09T07:37:28.218Z,19.15
2023-01-09T07:39:56.172Z,22.55
2023-01-09T07:42:23.786Z,23.50
2023-01-09T07:44:51.773Z,21.25
2023-01-09T07:47:19.382Z,23.80
2023-01-09T07:49:47.337Z,21.17
2023-01-09T07:52:15.172Z,23.48
2023-01-09T07:54:43.158Z,21.83
2023-01-09T07:57:10.768Z,23.23
2023-01-09T07:59:38.646Z,23.52
2023-01-09T08:02:07.268Z,23.27
2023-01-09T08:04:35.272Z,24.17
2023-01-09T08:07:03.423Z,21.75
2023-01-09T08:09:31.424Z,22.20
2023-01-09T08:11:59.076Z,21.52
2023-01-09T08:14:27.026Z,18.50
2023-01-09T08:16:54.619Z,21.42
2023-01-09T08:19:22.691Z,19.27
2023-01-09T08:21:50.748Z,20.13
2023-01-09T08:24:18.775Z,20.02
2023-01-09T08:26:46.626Z,18.67
2023-01-09T08:29:14.727Z,19.88
2023-01-09T08:31:42.557Z,18.90
2023-01-09T08:34:10.511Z,20.58
2023-01-09T08:36:38.115Z,18.08
2023-01-09T08:39:06.082Z,18.35
2023-01-09T08:41:52.361Z,19.83
2023-01-09T08:44:38.861Z,18.85
2023-01-09T08:47:06.749Z,18.38
2023-01-09T08:49:39.013Z,18.67
2023-01-09T08:52:07.823Z,16.10
2023-01-09T08:54:38.966Z,18.45
2023-01-09T08:57:07.819Z,18.48
2023-01-09T08:59:36.888Z,17.85
2023-01-09T09:02:04.651Z,18.52
2023-01-09T09:04:32.558Z,18.20
2023-01-09T09:07:00.237Z,19.63
2023-01-09T09:09:28.147Z,20.20
2023-01-09T09:11:55.889Z,17.95
2023-01-09T09:14:42.547Z,18.85
2023-01-09T09:17:10.285Z,16.55
2023-01-09T09:19:39.611Z,17.95
2023-01-09T09:22:07.327Z,19.40
2023-01-09T09:24:35.201Z,18.02
2023-01-09T09:27:03.317Z,18.60
2023-01-09T09:29:31.187Z,18.52
2023-01-09T09:32:00.827Z,17.90
2023-01-09T09:34:28.964Z,18.77
2023-01-09T09:36:56.619Z,19.90
2023-01-09T09:39:24.559Z,18.95
2023-01-09T09:42:22.526Z,19.67
2023-01-09T09:45:03.456Z,18.70
2023-01-09T09:47:43.571Z,18.50
2023-01-09T09:50:17.641Z,18.27
2023-01-09T09:53:08.471Z,19.15
2023-01-09T09:55:40.187Z,20.20
2023-01-09T09:58:32.082Z,18.67
2023-01-09T10:01:01.552Z,19.08
2023-01-09T10:03:50.362Z,16.98
2023-01-09T10:06:38.270Z,19.90
2023-01-09T10:09:57.611Z,15.25
2023-01-09T10:12:29.610Z,18.80
2023-01-09T10:15:17.856Z,17.92
2023-01-09T10:18:10.095Z,17.48
2023-01-09T10:20:53.035Z,19.00
2023-01-09T10:23:49.735Z,19.60
2023-01-09T10:26:41.864Z,18.55
2023-01-09T10:29:47.953Z,18.13
2023-01-09T10:32:37.606Z,19.13
2023-01-09T10:35:48.143Z,18.75
2023-01-09T10:38:33.884Z,19.23
2023-01-09T10:41:20.946Z,19.50
2023-01-09T10:44:15.369Z,19.58
2023-01-09T10:49:24.220Z,20.63
2023-01-09T10:52:05.429Z,20.48
2023-01-09T10:54:33.174Z,21.42
2023-01-09T10:57:14.608Z,21.77
2023-01-09T10:59:43.029Z,20.75
2023-01-09T11:02:33.513Z,22.63
2023-01-09T11:05:01.482Z,22.77
2023-01-09T11:07:39.421Z,23.88
2023-01-09T11:10:11.838Z,22.70
2023-01-09T11:12:40.431Z,23.75
2023-01-09T11:15:19.465Z,22.77
2023-01-09T11:17:50.513Z,23.92
2023-01-09T11:20:36.523Z,26.63
2023-01-09T11:23:04.615Z,25.42
2023-01-09T11:25:32.257Z,26.00
2023-01-09T11:28:02.955Z,25.75
2023-01-09T11:30:34.106Z,24.65
2023-01-09T11:33:13.783Z,24.23
2023-01-09T11:35:56.165Z,24.05
2023-01-09T11:38:24.230Z,24.67
2023-01-09T11:41:04.210Z,24.00
2023-01-09T11:43:44.962Z,24.00
2023-01-09T11:46:41.929Z,24.83
2023-01-09T11:49:25.060Z,25.35
2023-01-09T11:52:20.588Z,24.25
2023-01-09T11:54:59.930Z,25.55
2023-01-09T11:57:28.025Z,24.98
2023-01-09T12:00:06.027Z,23.88
2023-01-09T12:03:14.693Z,24.63
2023-01-09T12:05:42.693Z,26.50
2023-01-09T12:08:28.805Z,23.75
2023-01-09T12:11:10.825Z,22.67
2023-01-09T12:14:06.059Z,24.73
2023-01-09T12:16:58.791Z,24.95
2023-01-09T12:20:01.224Z,25.95
2023-01-09T12:22:44.451Z,27.88
2023-01-09T12:25:22.011Z,27.77
2023-01-09T12:28:03.261Z,27.33
2023-01-09T12:30:52.130Z,27.50
2023-01-09T12:33:44.786Z,28.05
2023-01-09T12:36:27.806Z,30.55
2023-01-09T12:39:08.165Z,29.95
2023-01-09T12:41:44.858Z,30.38
2023-01-09T12:44:50.355Z,31.42
2023-01-09T12:47:36.865Z,28.23
2023-01-09T12:50:23.249Z,26.13
2023-01-09T12:53:06.839Z,27.13
2023-01-09T12:55:40.601Z,27.77
2023-01-09T12:59:05.426Z,30.17
2023-01-09T13:01:46.631Z,30.73
2023-01-09T13:04:30.630Z,30.10
2023-01-09T13:09:45.872Z,35.15
2023-01-09T13:12:21.698Z,35.25
2023-01-09T13:15:00.778Z,29.50
2023-01-09T13:17:32.011Z,31.42
2023-01-09T13:19:59.650Z,29.15
2023-01-09T13:22:29.818Z,29.88
2023-01-09T13:25:20.012Z,27.48
2023-01-09T13:27:58.489Z,27.02
2023-01-09T13:30:52.309Z,29.25
2023-01-09T13:35:54.024Z,27.45
2023-01-09T13:38:28.535Z,29.75
2023-01-09T13:41:32.839Z,29.67
2023-01-09T13:44:24.347Z,31.35
2023-01-09T13:46:59.224Z,29.65
2023-01-09T13:49:40.297Z,30.38
2023-01-09T13:52:33.018Z,28.75
2023-01-09T13:55:04.096Z,25.88
2023-01-09T13:57:38.404Z,30.02
2023-01-09T14:00:15.420Z,27.98
2023-01-09T14:02:44.932Z,28.40
2023-01-09T14:05:12.928Z,31.90
2023-01-09T14:07:42.533Z,30.40
2023-01-09T14:10:34.621Z,31.63
2023-01-09T14:13:12.605Z,32.00
2023-01-09T14:15:44.915Z,32.28
2023-01-09T14:18:34.769Z,30.35
2023-01-09T14:24:04.479Z,30.65
2023-01-09T14:26:46.094Z,31.08
2023-01-09T14:29:40.236Z,28.80
2023-01-09T14:32:23.327Z,32.13
2023-01-09T14:35:08.780Z,30.35
2023-01-09T14:37:40.078Z,31.20
2023-01-09T14:40:19.385Z,34.17
2023-01-09T14:42:51.875Z,29.15
2023-01-09T14:45:23.512Z,28.60
2023-01-09T14:48:11.222Z,25.33
2023-01-09T14:50:45.152Z,27.65
2023-01-09T14:53:18.364Z,27.17
2023-01-09T14:55:57.947Z,27.60
2023-01-09T14:58:37.890Z,32.25
2023-01-09T15:01:18.913Z,32.53
2023-01-09T15:03:51.534Z,27.98
2023-01-09T15:06:25.559Z,28.15
2023-01-09T15:09:08.438Z,26.92
2023-01-09T15:11:39.938Z,26.92
2023-01-09T15:14:14.100Z,28.83
2023-01-09T15:16:45.801Z,24.95
2023-01-09T15:19:15.351Z,27.60
2023-01-09T15:22:04.679Z,24.58
2023-01-09T15:24:34.619Z,24.08
2023-01-09T15:27:13.074Z,26.67
2023-01-09T15:29:41.647Z,24.40
2023-01-09T15:32:24.911Z,25.45
2023-01-09T15:34:54.786Z,25.02
2023-01-09T15:37:30.467Z,23.55
2023-01-09T15:40:01.708Z,24.08
2023-01-09T15:42:52.542Z,25.02
2023-01-09T15:45:34.053Z,23.52
2023-01-09T15:48:20.612Z,24.08
2023-01-09T15:50:51.128Z,21.23
2023-01-09T15:53:21.508Z,24.40
2023-01-09T15:56:20.307Z,23.23
2023-01-09T15:58:50.110Z,24.50
2023-01-09T16:01:18.066Z,23.20
2023-01-09T16:03:45.866Z,23.17
2023-01-09T16:06:28.989Z,23.15
2023-01-09T16:08:59.330Z,24.33
2023-01-09T16:11:33.243Z,21.80
2023-01-09T16:14:16.502Z,22.80
2023-01-09T16:16:46.133Z,24.60
2023-01-09T16:19:49.996Z,23.45
2023-01-09T16:22:29.835Z,22.88
2023-01-09T16:25:02.544Z,23.48
2023-01-09T16:27:33.539Z,23.23
2023-01-09T16:30:03.300Z,21.17
2023-01-09T16:32:31.479Z,21.65
2023-01-09T16:35:06.436Z,22.45
2023-01-09T16:37:36.040Z,23.48
2023-01-09T16:40:12.664Z,20.42
2023-01-09T16:42:59.666Z,23.15
2023-01-09T16:45:28.762Z,22.35
2023-01-09T16:47:58.110Z,23.33
2023-01-09T16:50:26.392Z,23.48
2023-01-09T16:52:55.833Z,23.52
2023-01-09T16:55:23.636Z,23.17
2023-01-09T16:57:51.887Z,22.52
2023-01-09T17:00:21.247Z,22.52
2023-01-09T17:02:49.286Z,22.45
2023-01-09T17:05:17.118Z,24.42
2023-01-09T17:07:45.102Z,21.63
2023-01-09T17:10:22.891Z,24.00
2023-01-09T17:12:50.892Z,24.35
2023-01-09T17:15:18.686Z,24.38
2023-01-09T17:17:46.646Z,22.98
2023-01-09T17:20:19.285Z,22.80
2023-01-09T17:22:47.282Z,24.65
2023-01-09T17:25:34.516Z,25.30
2023-01-09T17:28:22.333Z,24.77
2023-01-09T17:30:50.161Z,25.17
2023-01-09T17:33:19.213Z,24.63
2023-01-09T17:35:47.035Z,25.90
2023-01-09T17:38:16.179Z,25.65
2023-01-09T17:40:44.625Z,25.35
2023-01-09T17:43:13.408Z,25.63
2023-01-09T17:45:42.266Z,24.50
2023-01-09T17:48:21.834Z,24.83
2023-01-09T17:50:50.100Z,25.38
2023-01-09T17:53:20.695Z,25.33
2023-01-09T17:55:48.555Z,26.77
2023-01-09T17:58:26.107Z,26.80
2023-01-09T18:00:53.871Z,23.90
2023-01-09T18:03:23.279Z,27.17
2023-01-09T18:05:51.233Z,27.35
2023-01-09T18:08:19.190Z,27.98
2023-01-09T18:10:48.561Z,29.15
2023-01-09T18:13:17.616Z,29.83
2023-01-09T18:15:46.570Z,30.33
2023-01-09T18:18:16.176Z,30.92
2023-01-09T18:20:45.508Z,32.58
2023-01-09T18:23:14.004Z,31.63
2023-01-09T18:25:43.110Z,34.75
2023-01-09T18:28:15.293Z,32.15
2023-01-09T18:30:47.747Z,31.77
2023-01-09T18:33:16.194Z,32.78
2023-01-09T18:35:44.980Z,33.05
2023-01-09T18:38:13.819Z,31.70
2023-01-09T18:40:41.942Z,34.40
2023-01-09T18:43:11.484Z,34.03
2023-01-09T18:45:39.457Z,34.08
2023-01-09T18:48:07.935Z,33.47
2023-01-09T18:50:35.702Z,32.60
2023-01-09T18:53:03.719Z,32.63
2023-01-09T18:55:31.383Z,33.53
2023-01-09T18:57:59.447Z,32.88
2023-01-09T19:00:27.129Z,33.67
2023-01-09T19:02:55.081Z,33.42
2023-01-09T19:05:23.367Z,34.35
2023-01-09T19:07:51.526Z,34.67
2023-01-09T19:10:19.392Z,34.28
2023-01-09T19:12:47.379Z,34.17
2023-01-09T19:15:15.000Z,33.92
2023-01-09T19:17:43.034Z,33.08
2023-01-09T19:20:11.383Z,34.05
2023-01-09T19:22:39.308Z,32.85
2023-01-09T19:25:07.296Z,34.28
2023-01-09T19:27:35.314Z,33.28
2023-01-09T19:30:03.247Z,34.90
2023-01-09T19:32:31.335Z,33.80
2023-01-09T19:34:58.949Z,35.85
2023-01-09T19:37:26.937Z,33.42
2023-01-09T19:39:54.596Z,32.63
2023-01-09T19:42:22.498Z,31.83
2023-01-09T19:44:50.236Z,31.45
2023-01-09T19:47:18.183Z,31.33
2023-01-09T19:49:46.494Z,33.22
2023-01-09T19:52:14.796Z,32.28
2023-01-09T19:54:42.531Z,31.63
2023-01-09T19:57:10.482Z,33.05
2023-01-09T19:59:40.015Z,33.13
2023-01-09T20:02:11.029Z,32.90
2023-01-09T20:04:38.879Z,33.20
2023-01-09T20:07:07.300Z,33.85
2023-01-09T20:09:35.052Z,33.67
2023-01-09T20:12:05.290Z,33.78
2023-01-09T20:14:36.510Z,32.28
2023-01-09T20:17:04.766Z,32.20
2023-01-09T20:19:33.233Z,31.98
2023-01-09T20:22:01.594Z,31.38
2023-01-09T20:24:29.518Z,30.02
2023-01-09T20:26:57.443Z,30.95
2023-01-09T20:29:25.664Z,30.52
2023-01-09T20:31:53.679Z,31.10
2023-01-09T20:34:21.356Z,31.02
2023-01-09T20:36:49.448Z,29.40
2023-01-09T20:39:17.184Z,29.17
2023-01-09T20:41:45.450Z,29.73
2023-01-09T20:44:14.542Z,31.27
2023-01-09T20:46:47.477Z,30.92
2023-01-09T20:49:18.453Z,31.42
2023-01-09T20:51:49.306Z,31.60
2023-01-09T20:54:18.426Z,30.45
2023-01-09T20:56:46.287Z,31.92
2023-01-09T20:59:23.111Z,30.23
2023-01-09T21:01:51.474Z,31.88
2023-01-09T21:04:19.637Z,31.00
2023-01-09T21:06:49.781Z,29.13
2023-01-09T21:09:18.439Z,29.90
2023-01-09T21:11:46.476Z,29.95
2023-01-09T21:14:14.171Z,29.95
2023-01-09T21:16:45.512Z,30.77
2023-01-09T21:19:19.592Z,31.02
2023-01-09T21:21:47.554Z,31.30
2023-01-09T21:24:15.316Z,29.98
2023-01-09T21:26:44.457Z,30.02
2023-01-09T21:29:13.663Z,28.70
2023-01-09T21:31:44.153Z,28.48
2023-01-09T21:34:14.840Z,29.13
2023-01-09T21:36:45.000Z,29.95
2023-01-09T21:39:12.808Z,29.42
2023-01-09T21:41:59.479Z,28.48
2023-01-09T21:44:45.986Z,28.77
2023-01-09T21:47:14.162Z,27.77
2023-01-09T21:49:43.535Z,29.42
2023-01-09T21:52:13.081Z,29.40
2023-01-09T21:54:41.799Z,28.05
2023-01-09T21:57:10.115Z,29.13
2023-01-09T21:59:37.796Z,29.85
2023-01-09T22:02:05.747Z,29.30
2023-01-09T22:04:33.621Z,28.40
2023-01-09T22:07:01.650Z,29.35
2023-01-09T22:09:29.458Z,29.38
2023-01-09T22:11:57.816Z,28.20
2023-01-09T22:14:25.467Z,29.50
2023-01-09T22:16:53.528Z,29.48
2023-01-09T22:19:21.222Z,29.42
2023-01-09T22:21:49.580Z,30.08
2023-01-09T22:24:18.815Z,29.60
2023-01-09T22:26:47.579Z,29.83
2023-01-09T22:29:16.375Z,29.73
2023-01-09T22:31:44.581Z,30.85
2023-01-09T22:34:17.313Z,31.13
2023-01-09T22:36:46.638Z,30.08
2023-01-09T22:39:16.245Z,30.60
2023-01-09T22:41:44.878Z,31.48
2023-01-09T22:44:13.189Z,31.27
2023-01-09T22:46:41.113Z,31.02
2023-01-09T22:49:12.136Z,31.10
2023-01-09T22:51:40.565Z,30.73
2023-01-09T22:54:08.384Z,31.88
2023-01-09T22:56:36.525Z,30.38
2023-01-09T22:59:04.385Z,30.13
2023-01-09T23:01:32.371Z,31.50
2023-01-09T23:04:00.046Z,28.88
2023-01-09T23:06:27.942Z,31.77
2023-01-09T23:08:55.665Z,31.17
2023-01-09T23:11:47.271Z,30.65
2023-01-09T23:14:15.317Z,29.98
2023-01-09T23:16:43.474Z,30.65
2023-01-09T23:19:16.904Z,29.73
2023-01-09T23:21:45.623Z,29.70
2023-01-09T23:24:15.521Z,27.95
2023-01-09T23:26:44.706Z,30.80
2023-01-09T23:29:13.430Z,29.48
2023-01-09T23:31:41.746Z,29.20
2023-01-09T23:34:12.868Z,28.88
2023-01-09T23:36:41.208Z,30.50
2023-01-09T23:39:10.151Z,29.73
2023-01-09T23:41:57.035Z,30.23
2023-01-09T23:44:24.938Z,28.48
2023-01-09T23:46:53.433Z,27.10
2023-01-09T23:49:21.192Z,28.77
2023-01-09T23:51:49.101Z,27.95
2023-01-09T23:54:17.749Z,28.23
2023-01-09T23:56:45.735Z,27.85
2023-01-09T23:59:14.654Z,28.33
